CYZR

Chris Hadfield Airport

Code ICAO CYZR
Code IATA YZR
Nom Chris Hadfield Airport
Emplacement Sarnia, Ontario, CA
Élévation 594 pieds / 181.1 mètres
Latitude 42.99940109
Longitude -82.30889893
METAR CYZR 080704Z AUTO 35018G25KT 9SM OVC011 03/02 A2993 RMK SLP142
Informations extras Afficher cartes et CFS
Afficher NOTAMS
Piste Longueur Largeur Surface Élévation
05 2989 ft 75 ft ASP 591 ft
14 5100 ft 100 ft ASP 590 ft
23 2989 ft 75 ft ASP 590 ft
32 5100 ft 100 ft ASP 594 ft